createdAt,value
2019-01-31T12:30:56.697Z,2.37
2019-01-31T12:33:31.637Z,2.43
2019-01-31T12:36:01.604Z,2.60
2019-01-31T12:44:40.006Z,3.20
2019-01-31T12:47:11.560Z,2.60
2019-01-31T12:49:44.424Z,2.90
2019-01-31T12:52:17.292Z,3.30
2019-01-31T12:54:46.653Z,2.80
2019-01-31T12:57:19.326Z,2.80
2019-01-31T12:59:51.658Z,2.50
2019-01-31T13:02:22.663Z,2.73
2019-01-31T13:05:00.990Z,2.60
2019-01-31T13:16:25.911Z,3.20
2019-01-31T13:22:21.990Z,2.70
2019-01-31T13:28:09.013Z,3.43
2019-01-31T13:30:37.700Z,3.50
2019-01-31T13:33:06.481Z,3.07
2019-01-31T13:35:35.545Z,3.60
2019-01-31T13:38:04.355Z,3.40
2019-01-31T13:40:33.141Z,3.50
2019-01-31T14:05:37.213Z,3.97
2019-01-31T14:08:07.344Z,4.60
2019-01-31T14:10:37.391Z,4.57
2019-01-31T14:13:06.121Z,4.07
2019-01-31T14:15:35.345Z,4.73
2019-01-31T14:18:04.538Z,4.57
2019-01-31T14:20:33.359Z,3.73
2019-01-31T14:23:01.946Z,3.87
2019-01-31T14:25:30.585Z,4.27
2019-01-31T14:27:59.142Z,4.07
2019-01-31T14:30:33.107Z,4.23
2019-01-31T14:33:01.945Z,4.40
2019-01-31T14:35:30.971Z,4.90
2019-01-31T14:37:59.586Z,3.93
2019-01-31T14:40:29.176Z,4.33
2019-01-31T14:42:57.868Z,3.77
2019-01-31T14:45:26.612Z,4.30
2019-01-31T14:47:55.990Z,4.30
2019-01-31T14:50:30.152Z,3.27
2019-01-31T14:52:58.826Z,4.80
2019-01-31T14:55:27.505Z,4.70
2019-01-31T14:57:56.274Z,4.33
2019-01-31T15:00:34.144Z,4.53
2019-01-31T15:03:02.770Z,4.73
2019-01-31T15:05:31.662Z,4.50
2019-01-31T15:08:00.227Z,4.83
2019-01-31T15:10:29.853Z,3.87
2019-01-31T15:12:58.582Z,4.23
2019-01-31T15:15:27.214Z,4.10
2019-01-31T15:17:56.005Z,4.27
2019-01-31T15:20:37.929Z,4.37
2019-01-31T15:23:04.730Z,4.40
